sensor_id;sensor_type;location;lat;lon;timestamp;P1;durP1;ratioP1;P2;durP2;ratioP2
66145;SDS011;52948;60.040;30.320;2022-09-13T00:02:43;10.57;;;6.72;;
66145;SDS011;52948;60.040;30.320;2022-09-13T00:07:45;11.95;;;7.05;;
66145;SDS011;52948;60.040;30.320;2022-09-13T00:12:47;14.77;;;7.30;;
66145;SDS011;52948;60.040;30.320;2022-09-13T00:17:50;10.60;;;6.57;;
66145;SDS011;52948;60.040;30.320;2022-09-13T00:22:52;14.45;;;6.78;;
66145;SDS011;52948;60.040;30.320;2022-09-13T00:27:55;11.65;;;7.13;;
66145;SDS011;52948;60.040;30.320;2022-09-13T00:32:57;12.27;;;6.57;;
66145;SDS011;52948;60.040;30.320;2022-09-13T00:37:59;14.43;;;7.03;;
66145;SDS011;52948;60.040;30.320;2022-09-13T00:43:02;15.68;;;7.82;;
66145;SDS011;52948;60.040;30.320;2022-09-13T00:48:05;14.55;;;6.60;;
66145;SDS011;52948;60.040;30.320;2022-09-13T00:53:12;14.38;;;6.85;;
66145;SDS011;52948;60.040;30.320;2022-09-13T00:58:17;12.90;;;6.90;;
66145;SDS011;52948;60.040;30.320;2022-09-13T01:03:23;13.97;;;7.37;;
66145;SDS011;52948;60.040;30.320;2022-09-13T01:08:28;16.90;;;7.68;;
66145;SDS011;52948;60.040;30.320;2022-09-13T01:13:32;12.73;;;7.88;;
66145;SDS011;52948;60.040;30.320;2022-09-13T01:18:35;19.33;;;8.38;;
66145;SDS011;52948;60.040;30.320;2022-09-13T01:29:08;16.98;;;8.82;;
66145;SDS011;52948;60.040;30.320;2022-09-13T01:34:16;23.63;;;8.85;;
66145;SDS011;52948;60.040;30.320;2022-09-13T01:50:19;19.58;;;8.65;;
66145;SDS011;52948;60.040;30.320;2022-09-13T01:55:29;15.07;;;7.68;;
66145;SDS011;52948;60.040;30.320;2022-09-13T02:00:42;16.30;;;8.48;;
66145;SDS011;52948;60.040;30.320;2022-09-13T02:10:58;12.88;;;7.78;;
66145;SDS011;52948;60.040;30.320;2022-09-13T02:16:11;14.77;;;7.53;;
66145;SDS011;52948;60.040;30.320;2022-09-13T02:21:31;16.45;;;8.20;;
66145;SDS011;52948;60.040;30.320;2022-09-13T02:26:37;12.85;;;7.53;;
66145;SDS011;52948;60.040;30.320;2022-09-13T02:31:41;13.82;;;7.20;;
66145;SDS011;52948;60.040;30.320;2022-09-13T02:36:47;12.27;;;7.47;;
66145;SDS011;52948;60.040;30.320;2022-09-13T02:42:02;15.63;;;7.30;;
66145;SDS011;52948;60.040;30.320;2022-09-13T02:47:15;13.35;;;6.97;;
66145;SDS011;52948;60.040;30.320;2022-09-13T03:03:13;15.85;;;7.50;;
66145;SDS011;52948;60.040;30.320;2022-09-13T03:08:17;12.55;;;6.35;;
66145;SDS011;52948;60.040;30.320;2022-09-13T03:29:18;12.18;;;6.90;;
66145;SDS011;52948;60.040;30.320;2022-09-13T03:39:41;13.15;;;6.70;;
66145;SDS011;52948;60.040;30.320;2022-09-13T03:44:49;12.57;;;6.30;;
66145;SDS011;52948;60.040;30.320;2022-09-13T03:49:52;12.90;;;5.50;;
66145;SDS011;52948;60.040;30.320;2022-09-13T03:54:56;10.95;;;5.95;;
66145;SDS011;52948;60.040;30.320;2022-09-13T03:59:58;10.90;;;5.90;;
66145;SDS011;52948;60.040;30.320;2022-09-13T04:05:01;9.38;;;4.93;;
66145;SDS011;52948;60.040;30.320;2022-09-13T04:10:03;8.02;;;5.05;;
66145;SDS011;52948;60.040;30.320;2022-09-13T04:15:06;12.05;;;5.85;;
66145;SDS011;52948;60.040;30.320;2022-09-13T04:20:09;9.63;;;5.53;;
66145;SDS011;52948;60.040;30.320;2022-09-13T04:25:12;11.05;;;5.43;;
66145;SDS011;52948;60.040;30.320;2022-09-13T04:30:14;9.50;;;6.30;;
66145;SDS011;52948;60.040;30.320;2022-09-13T04:35:16;13.52;;;6.20;;
66145;SDS011;52948;60.040;30.320;2022-09-13T04:40:20;11.13;;;5.75;;
66145;SDS011;52948;60.040;30.320;2022-09-13T04:45:23;15.68;;;6.15;;
66145;SDS011;52948;60.040;30.320;2022-09-13T04:50:26;10.80;;;6.38;;
66145;SDS011;52948;60.040;30.320;2022-09-13T04:55:28;12.27;;;6.25;;
66145;SDS011;52948;60.040;30.320;2022-09-13T05:00:30;10.27;;;6.28;;
66145;SDS011;52948;60.040;30.320;2022-09-13T05:05:33;12.20;;;6.25;;
66145;SDS011;52948;60.040;30.320;2022-09-13T05:10:36;10.30;;;5.78;;
66145;SDS011;52948;60.040;30.320;2022-09-13T05:15:43;11.90;;;5.88;;
66145;SDS011;52948;60.040;30.320;2022-09-13T05:20:45;9.73;;;5.43;;
66145;SDS011;52948;60.040;30.320;2022-09-13T05:25:54;11.73;;;5.57;;
66145;SDS011;52948;60.040;30.320;2022-09-13T05:31:03;16.15;;;5.47;;
66145;SDS011;52948;60.040;30.320;2022-09-13T05:36:11;8.32;;;5.18;;
66145;SDS011;52948;60.040;30.320;2022-09-13T05:41:14;7.60;;;5.03;;
66145;SDS011;52948;60.040;30.320;2022-09-13T05:46:16;8.90;;;4.80;;
66145;SDS011;52948;60.040;30.320;2022-09-13T05:51:21;9.20;;;4.90;;
66145;SDS011;52948;60.040;30.320;2022-09-13T05:56:24;7.72;;;4.13;;
66145;SDS011;52948;60.040;30.320;2022-09-13T06:01:29;8.10;;;3.90;;
66145;SDS011;52948;60.040;30.320;2022-09-13T06:06:31;9.18;;;4.25;;
66145;SDS011;52948;60.040;30.320;2022-09-13T06:11:33;7.45;;;4.00;;
66145;SDS011;52948;60.040;30.320;2022-09-13T06:16:35;6.90;;;4.55;;
66145;SDS011;52948;60.040;30.320;2022-09-13T06:21:37;11.82;;;4.25;;
66145;SDS011;52948;60.040;30.320;2022-09-13T06:26:40;7.10;;;3.95;;
66145;SDS011;52948;60.040;30.320;2022-09-13T06:31:42;9.50;;;4.57;;
66145;SDS011;52948;60.040;30.320;2022-09-13T06:36:45;10.80;;;4.47;;
66145;SDS011;52948;60.040;30.320;2022-09-13T06:41:48;10.20;;;5.57;;
66145;SDS011;52948;60.040;30.320;2022-09-13T06:46:50;11.35;;;4.97;;
66145;SDS011;52948;60.040;30.320;2022-09-13T06:51:52;9.52;;;4.63;;
66145;SDS011;52948;60.040;30.320;2022-09-13T06:56:54;9.52;;;4.93;;
66145;SDS011;52948;60.040;30.320;2022-09-13T07:01:56;7.90;;;5.35;;
66145;SDS011;52948;60.040;30.320;2022-09-13T07:06:59;10.73;;;5.22;;
66145;SDS011;52948;60.040;30.320;2022-09-13T07:12:03;9.73;;;4.45;;
66145;SDS011;52948;60.040;30.320;2022-09-13T07:17:06;8.30;;;4.35;;
66145;SDS011;52948;60.040;30.320;2022-09-13T07:22:08;8.75;;;4.82;;
66145;SDS011;52948;60.040;30.320;2022-09-13T07:27:10;10.73;;;4.82;;
66145;SDS011;52948;60.040;30.320;2022-09-13T07:32:13;8.93;;;4.90;;
66145;SDS011;52948;60.040;30.320;2022-09-13T07:37:15;9.40;;;5.07;;
66145;SDS011;52948;60.040;30.320;2022-09-13T07:42:17;10.95;;;6.13;;
66145;SDS011;52948;60.040;30.320;2022-09-13T07:47:19;8.70;;;4.65;;
66145;SDS011;52948;60.040;30.320;2022-09-13T07:52:22;9.07;;;4.28;;
66145;SDS011;52948;60.040;30.320;2022-09-13T07:57:24;8.45;;;5.22;;
66145;SDS011;52948;60.040;30.320;2022-09-13T08:02:26;12.90;;;5.88;;
66145;SDS011;52948;60.040;30.320;2022-09-13T08:07:28;11.93;;;5.63;;
66145;SDS011;52948;60.040;30.320;2022-09-13T08:12:30;12.88;;;5.95;;
66145;SDS011;52948;60.040;30.320;2022-09-13T08:17:32;12.82;;;6.07;;
66145;SDS011;52948;60.040;30.320;2022-09-13T08:22:35;9.73;;;5.25;;
66145;SDS011;52948;60.040;30.320;2022-09-13T08:27:37;9.07;;;5.13;;
66145;SDS011;52948;60.040;30.320;2022-09-13T08:32:39;9.88;;;5.72;;
66145;SDS011;52948;60.040;30.320;2022-09-13T08:37:41;8.00;;;4.88;;
66145;SDS011;52948;60.040;30.320;2022-09-13T08:48:15;11.55;;;5.85;;
66145;SDS011;52948;60.040;30.320;2022-09-13T08:53:29;9.68;;;5.60;;
66145;SDS011;52948;60.040;30.320;2022-09-13T09:08:44;9.32;;;5.00;;
66145;SDS011;52948;60.040;30.320;2022-09-13T09:13:50;11.02;;;5.45;;
66145;SDS011;52948;60.040;30.320;2022-09-13T09:18:58;7.40;;;4.65;;
66145;SDS011;52948;60.040;30.320;2022-09-13T09:24:08;12.10;;;4.72;;
66145;SDS011;52948;60.040;30.320;2022-09-13T09:29:23;5.90;;;4.82;;
66145;SDS011;52948;60.040;30.320;2022-09-13T09:34:34;7.32;;;4.75;;
66145;SDS011;52948;60.040;30.320;2022-09-13T09:39:43;10.20;;;5.20;;
66145;SDS011;52948;60.040;30.320;2022-09-13T09:44:47;6.43;;;3.45;;
66145;SDS011;52948;60.040;30.320;2022-09-13T09:49:57;6.38;;;4.00;;
66145;SDS011;52948;60.040;30.320;2022-09-13T09:55:16;6.90;;;4.25;;
66145;SDS011;52948;60.040;30.320;2022-09-13T10:00:30;6.65;;;4.25;;
66145;SDS011;52948;60.040;30.320;2022-09-13T10:05:35;8.02;;;3.53;;
66145;SDS011;52948;60.040;30.320;2022-09-13T10:10:41;7.78;;;3.78;;
66145;SDS011;52948;60.040;30.320;2022-09-13T10:15:53;6.82;;;4.13;;
66145;SDS011;52948;60.040;30.320;2022-09-13T10:21:19;12.60;;;4.10;;
66145;SDS011;52948;60.040;30.320;2022-09-13T10:26:24;6.85;;;3.45;;
66145;SDS011;52948;60.040;30.320;2022-09-13T10:31:29;4.60;;;3.33;;
66145;SDS011;52948;60.040;30.320;2022-09-13T10:36:33;7.65;;;3.35;;
66145;SDS011;52948;60.040;30.320;2022-09-13T10:41:37;7.38;;;2.92;;
66145;SDS011;52948;60.040;30.320;2022-09-13T10:46:42;8.02;;;3.53;;
66145;SDS011;52948;60.040;30.320;2022-09-13T10:51:49;5.90;;;2.90;;
66145;SDS011;52948;60.040;30.320;2022-09-13T10:56:51;7.97;;;3.25;;
66145;SDS011;52948;60.040;30.320;2022-09-13T11:13:01;2.65;;;1.80;;
66145;SDS011;52948;60.040;30.320;2022-09-13T11:23:58;3.83;;;1.88;;
66145;SDS011;52948;60.040;30.320;2022-09-13T11:46:07;1.98;;;1.73;;
66145;SDS011;52948;60.040;30.320;2022-09-13T11:51:27;2.60;;;1.80;;
66145;SDS011;52948;60.040;30.320;2022-09-13T11:56:42;4.97;;;2.03;;
66145;SDS011;52948;60.040;30.320;2022-09-13T12:01:53;5.20;;;2.00;;
66145;SDS011;52948;60.040;30.320;2022-09-13T12:06:59;6.28;;;2.10;;
66145;SDS011;52948;60.040;30.320;2022-09-13T12:17:11;2.50;;;1.55;;
66145;SDS011;52948;60.040;30.320;2022-09-13T12:22:23;3.42;;;1.52;;
66145;SDS011;52948;60.040;30.320;2022-09-13T12:27:39;5.85;;;1.73;;
66145;SDS011;52948;60.040;30.320;2022-09-13T12:32:46;1.42;;;1.27;;
66145;SDS011;52948;60.040;30.320;2022-09-13T13:09:40;3.78;;;1.98;;
66145;SDS011;52948;60.040;30.320;2022-09-13T13:14:45;3.38;;;1.80;;
66145;SDS011;52948;60.040;30.320;2022-09-13T13:19:47;4.00;;;1.75;;
66145;SDS011;52948;60.040;30.320;2022-09-13T13:24:50;3.85;;;2.10;;
66145;SDS011;52948;60.040;30.320;2022-09-13T13:35:35;3.75;;;1.77;;
66145;SDS011;52948;60.040;30.320;2022-09-13T13:40:37;3.47;;;2.03;;
66145;SDS011;52948;60.040;30.320;2022-09-13T13:45:42;2.17;;;1.83;;
66145;SDS011;52948;60.040;30.320;2022-09-13T13:56:29;6.47;;;1.85;;
66145;SDS011;52948;60.040;30.320;2022-09-13T14:01:35;2.10;;;1.90;;
66145;SDS011;52948;60.040;30.320;2022-09-13T14:17:51;2.78;;;1.90;;
66145;SDS011;52948;60.040;30.320;2022-09-13T14:23:18;4.05;;;2.55;;
66145;SDS011;52948;60.040;30.320;2022-09-13T14:28:21;2.80;;;1.83;;
66145;SDS011;52948;60.040;30.320;2022-09-13T14:33:31;3.78;;;2.05;;
66145;SDS011;52948;60.040;30.320;2022-09-13T14:38:35;6.40;;;2.20;;
66145;SDS011;52948;60.040;30.320;2022-09-13T14:43:38;2.67;;;2.03;;
66145;SDS011;52948;60.040;30.320;2022-09-13T14:48:56;6.75;;;2.10;;
66145;SDS011;52948;60.040;30.320;2022-09-13T14:54:14;1.95;;;1.70;;
66145;SDS011;52948;60.040;30.320;2022-09-13T15:04:49;4.03;;;2.15;;
66145;SDS011;52948;60.040;30.320;2022-09-13T15:09:54;2.42;;;1.50;;
66145;SDS011;52948;60.040;30.320;2022-09-13T15:20:20;5.72;;;1.80;;
66145;SDS011;52948;60.040;30.320;2022-09-13T15:25:26;1.33;;;1.17;;
66145;SDS011;52948;60.040;30.320;2022-09-13T15:30:31;3.45;;;2.10;;
66145;SDS011;52948;60.040;30.320;2022-09-13T15:35:41;5.60;;;1.98;;
66145;SDS011;52948;60.040;30.320;2022-09-13T15:40:46;3.55;;;1.70;;
66145;SDS011;52948;60.040;30.320;2022-09-13T15:45:55;2.05;;;1.40;;
66145;SDS011;52948;60.040;30.320;2022-09-13T15:51:05;2.67;;;1.77;;
66145;SDS011;52948;60.040;30.320;2022-09-13T15:56:13;2.72;;;1.55;;
66145;SDS011;52948;60.040;30.320;2022-09-13T16:01:18;4.97;;;1.63;;
66145;SDS011;52948;60.040;30.320;2022-09-13T16:06:20;5.95;;;1.58;;
66145;SDS011;52948;60.040;30.320;2022-09-13T16:11:23;2.15;;;1.30;;
66145;SDS011;52948;60.040;30.320;2022-09-13T16:16:25;4.28;;;1.90;;
66145;SDS011;52948;60.040;30.320;2022-09-13T16:21:27;3.30;;;1.67;;
66145;SDS011;52948;60.040;30.320;2022-09-13T16:26:30;2.05;;;1.35;;
66145;SDS011;52948;60.040;30.320;2022-09-13T16:31:33;4.40;;;1.80;;
66145;SDS011;52948;60.040;30.320;2022-09-13T16:36:35;1.85;;;1.48;;
66145;SDS011;52948;60.040;30.320;2022-09-13T16:41:38;2.85;;;1.65;;
66145;SDS011;52948;60.040;30.320;2022-09-13T16:46:41;5.63;;;1.60;;
66145;SDS011;52948;60.040;30.320;2022-09-13T16:51:43;4.10;;;1.50;;
66145;SDS011;52948;60.040;30.320;2022-09-13T16:56:46;2.88;;;1.90;;
66145;SDS011;52948;60.040;30.320;2022-09-13T17:01:48;5.00;;;1.60;;
66145;SDS011;52948;60.040;30.320;2022-09-13T17:06:50;2.63;;;1.55;;
66145;SDS011;52948;60.040;30.320;2022-09-13T17:11:52;5.95;;;2.20;;
66145;SDS011;52948;60.040;30.320;2022-09-13T17:16:55;3.92;;;1.45;;
66145;SDS011;52948;60.040;30.320;2022-09-13T17:21:58;2.75;;;1.50;;
66145;SDS011;52948;60.040;30.320;2022-09-13T17:27:01;2.47;;;1.67;;
66145;SDS011;52948;60.040;30.320;2022-09-13T17:32:05;3.78;;;1.67;;
66145;SDS011;52948;60.040;30.320;2022-09-13T17:37:07;3.40;;;2.15;;
66145;SDS011;52948;60.040;30.320;2022-09-13T17:42:09;2.58;;;1.75;;
66145;SDS011;52948;60.040;30.320;2022-09-13T17:47:12;4.03;;;1.73;;
66145;SDS011;52948;60.040;30.320;2022-09-13T17:52:14;2.60;;;2.00;;
66145;SDS011;52948;60.040;30.320;2022-09-13T17:57:16;4.40;;;2.88;;
66145;SDS011;52948;60.040;30.320;2022-09-13T18:02:19;8.80;;;2.33;;
66145;SDS011;52948;60.040;30.320;2022-09-13T18:07:22;4.68;;;2.60;;
66145;SDS011;52948;60.040;30.320;2022-09-13T18:12:24;4.55;;;3.10;;
66145;SDS011;52948;60.040;30.320;2022-09-13T18:17:26;4.25;;;2.83;;
66145;SDS011;52948;60.040;30.320;2022-09-13T18:22:28;4.78;;;2.83;;
66145;SDS011;52948;60.040;30.320;2022-09-13T18:27:31;4.32;;;2.60;;
66145;SDS011;52948;60.040;30.320;2022-09-13T18:32:33;3.97;;;2.58;;
66145;SDS011;52948;60.040;30.320;2022-09-13T18:37:36;3.67;;;2.75;;
66145;SDS011;52948;60.040;30.320;2022-09-13T18:42:38;7.07;;;2.70;;
66145;SDS011;52948;60.040;30.320;2022-09-13T18:47:40;5.07;;;2.33;;
66145;SDS011;52948;60.040;30.320;2022-09-13T18:52:43;3.78;;;2.47;;
66145;SDS011;52948;60.040;30.320;2022-09-13T19:03:16;5.05;;;2.65;;
66145;SDS011;52948;60.040;30.320;2022-09-13T19:08:18;5.80;;;2.55;;
66145;SDS011;52948;60.040;30.320;2022-09-13T19:13:20;5.30;;;3.05;;
66145;SDS011;52948;60.040;30.320;2022-09-13T19:18:25;6.50;;;2.85;;
66145;SDS011;52948;60.040;30.320;2022-09-13T19:23:28;5.88;;;2.75;;
66145;SDS011;52948;60.040;30.320;2022-09-13T19:28:31;7.13;;;3.13;;
66145;SDS011;52948;60.040;30.320;2022-09-13T19:33:34;5.03;;;3.42;;
66145;SDS011;52948;60.040;30.320;2022-09-13T19:38:37;5.88;;;3.42;;
66145;SDS011;52948;60.040;30.320;2022-09-13T19:43:40;7.32;;;3.75;;
66145;SDS011;52948;60.040;30.320;2022-09-13T19:48:44;10.15;;;3.33;;
66145;SDS011;52948;60.040;30.320;2022-09-13T19:53:48;5.82;;;3.25;;
66145;SDS011;52948;60.040;30.320;2022-09-13T19:58:57;6.13;;;3.20;;
66145;SDS011;52948;60.040;30.320;2022-09-13T20:09:04;4.03;;;3.13;;
66145;SDS011;52948;60.040;30.320;2022-09-13T20:14:07;6.03;;;3.13;;
66145;SDS011;52948;60.040;30.320;2022-09-13T20:19:13;3.90;;;2.60;;
66145;SDS011;52948;60.040;30.320;2022-09-13T20:24:20;5.10;;;2.83;;
66145;SDS011;52948;60.040;30.320;2022-09-13T20:29:22;6.22;;;2.53;;
66145;SDS011;52948;60.040;30.320;2022-09-13T20:34:25;3.72;;;2.53;;
66145;SDS011;52948;60.040;30.320;2022-09-13T20:39:28;5.45;;;2.70;;
66145;SDS011;52948;60.040;30.320;2022-09-13T20:44:30;3.30;;;2.35;;
66145;SDS011;52948;60.040;30.320;2022-09-13T20:49:32;3.92;;;2.17;;
66145;SDS011;52948;60.040;30.320;2022-09-13T20:54:34;4.95;;;2.53;;
66145;SDS011;52948;60.040;30.320;2022-09-13T20:59:36;3.70;;;2.20;;
66145;SDS011;52948;60.040;30.320;2022-09-13T21:04:39;3.92;;;2.67;;
66145;SDS011;52948;60.040;30.320;2022-09-13T21:09:41;3.30;;;2.28;;
66145;SDS011;52948;60.040;30.320;2022-09-13T21:14:44;2.53;;;1.98;;
66145;SDS011;52948;60.040;30.320;2022-09-13T21:19:47;2.80;;;2.00;;
66145;SDS011;52948;60.040;30.320;2022-09-13T21:24:49;6.13;;;2.38;;
66145;SDS011;52948;60.040;30.320;2022-09-13T21:29:51;4.38;;;2.45;;
66145;SDS011;52948;60.040;30.320;2022-09-13T21:34:53;2.35;;;1.83;;
66145;SDS011;52948;60.040;30.320;2022-09-13T21:39:55;2.35;;;2.08;;
66145;SDS011;52948;60.040;30.320;2022-09-13T21:44:57;3.65;;;2.50;;
66145;SDS011;52948;60.040;30.320;2022-09-13T21:49:59;5.70;;;3.78;;
66145;SDS011;52948;60.040;30.320;2022-09-13T21:55:03;4.97;;;3.03;;
66145;SDS011;52948;60.040;30.320;2022-09-13T22:00:05;3.30;;;2.33;;
66145;SDS011;52948;60.040;30.320;2022-09-13T22:05:14;3.40;;;2.50;;
66145;SDS011;52948;60.040;30.320;2022-09-13T22:10:17;5.35;;;2.83;;
66145;SDS011;52948;60.040;30.320;2022-09-13T22:15:19;3.47;;;2.38;;
66145;SDS011;52948;60.040;30.320;2022-09-13T22:20:21;4.78;;;2.83;;
66145;SDS011;52948;60.040;30.320;2022-09-13T22:25:23;4.10;;;2.60;;
66145;SDS011;52948;60.040;30.320;2022-09-13T22:30:25;3.63;;;2.80;;
66145;SDS011;52948;60.040;30.320;2022-09-13T22:35:28;3.00;;;2.15;;
66145;SDS011;52948;60.040;30.320;2022-09-13T22:40:30;7.78;;;2.60;;
66145;SDS011;52948;60.040;30.320;2022-09-13T22:45:32;5.15;;;2.88;;
66145;SDS011;52948;60.040;30.320;2022-09-13T22:50:35;3.97;;;2.35;;
66145;SDS011;52948;60.040;30.320;2022-09-13T22:55:37;4.40;;;3.00;;
66145;SDS011;52948;60.040;30.320;2022-09-13T23:00:39;2.85;;;2.50;;
66145;SDS011;52948;60.040;30.320;2022-09-13T23:05:48;4.78;;;2.83;;
66145;SDS011;52948;60.040;30.320;2022-09-13T23:10:52;3.80;;;2.80;;
66145;SDS011;52948;60.040;30.320;2022-09-13T23:15:54;4.03;;;3.00;;
66145;SDS011;52948;60.040;30.320;2022-09-13T23:20:56;4.45;;;2.70;;
66145;SDS011;52948;60.040;30.320;2022-09-13T23:26:04;4.88;;;2.65;;
66145;SDS011;52948;60.040;30.320;2022-09-13T23:36:20;2.78;;;2.28;;
66145;SDS011;52948;60.040;30.320;2022-09-13T23:41:24;4.85;;;2.40;;
66145;SDS011;52948;60.040;30.320;2022-09-13T23:46:27;5.93;;;2.60;;
66145;SDS011;52948;60.040;30.320;2022-09-13T23:51:30;5.43;;;3.28;;
66145;SDS011;52948;60.040;30.320;2022-09-13T23:56:32;2.95;;;2.28;;
